createdAt,value
2018-05-29T00:01:55.097Z,81.90
2018-05-29T00:04:21.941Z,81.80
2018-05-29T00:06:48.777Z,81.70
2018-05-29T00:09:15.622Z,81.70
2018-05-29T00:11:42.455Z,81.80
2018-05-29T00:14:08.566Z,81.70
2018-05-29T00:16:34.662Z,81.60
2018-05-29T00:19:00.771Z,81.50
2018-05-29T00:21:26.870Z,81.30
2018-05-29T00:23:53.710Z,81.10
2018-05-29T00:26:19.802Z,81.10
2018-05-29T00:28:45.901Z,80.80
2018-05-29T00:31:11.986Z,80.60
2018-05-29T00:33:38.838Z,80.70
2018-05-29T00:36:05.674Z,80.50
2018-05-29T00:38:32.538Z,81.20
2018-05-29T00:40:58.630Z,80.40
2018-05-29T00:43:24.722Z,80.40
2018-05-29T00:45:50.811Z,80.40
2018-05-29T00:48:16.914Z,80.50
2018-05-29T00:50:43.018Z,80.60
2018-05-29T00:53:09.110Z,80.80
2018-05-29T00:55:36.982Z,82.20
2018-05-29T00:58:24.489Z,81.40
2018-05-29T01:00:50.581Z,81.50
2018-05-29T01:03:16.682Z,81.90
2018-05-29T01:05:42.778Z,82.00
2018-05-29T01:08:08.865Z,81.90
2018-05-29T01:10:34.950Z,82.20
2018-05-29T01:13:01.791Z,82.10
2018-05-29T01:15:27.889Z,82.10
2018-05-29T01:17:53.981Z,82.00
2018-05-29T01:20:20.074Z,82.10
2018-05-29T01:22:46.171Z,82.00
2018-05-29T01:25:12.271Z,82.10
2018-05-29T01:27:39.109Z,81.70
2018-05-29T01:30:06.516Z,81.60
2018-05-29T01:32:32.602Z,81.60
2018-05-29T01:34:59.438Z,81.90
2018-05-29T01:37:26.266Z,81.90
2018-05-29T01:39:52.361Z,81.90
2018-05-29T01:42:18.450Z,81.80
2018-05-29T01:44:44.585Z,81.90
2018-05-29T01:47:10.673Z,82.10
2018-05-29T01:49:36.753Z,82.20
2018-05-29T01:52:02.846Z,83.00
2018-05-29T01:54:29.670Z,82.40
2018-05-29T01:56:55.774Z,82.40
2018-05-29T01:59:21.854Z,82.30
2018-05-29T02:01:48.959Z,82.60
2018-05-29T02:04:15.069Z,82.50
2018-05-29T02:06:41.178Z,82.40
2018-05-29T02:09:07.269Z,82.30
2018-05-29T02:11:33.372Z,82.40
2018-05-29T02:13:59.462Z,82.40
2018-05-29T02:16:25.566Z,82.10
2018-05-29T02:18:51.662Z,82.60
2018-05-29T02:21:18.545Z,82.40
2018-05-29T02:23:44.627Z,82.30
2018-05-29T02:26:11.461Z,81.90
2018-05-29T02:28:37.555Z,81.80
2018-05-29T02:31:03.652Z,81.50
2018-05-29T02:33:29.742Z,81.30
2018-05-29T02:35:56.583Z,81.70
2018-05-29T02:38:22.687Z,81.60
2018-05-29T02:40:48.799Z,80.80
2018-05-29T02:43:14.885Z,80.70
2018-05-29T02:45:40.966Z,80.90
2018-05-29T02:48:07.067Z,80.90
2018-05-29T02:50:33.167Z,81.00
2018-05-29T02:52:59.261Z,81.10
2018-05-29T02:55:25.346Z,81.10
2018-05-29T02:57:51.441Z,81.00
2018-05-29T03:00:17.539Z,81.00
2018-05-29T03:02:43.645Z,81.20
2018-05-29T03:05:09.734Z,81.10
2018-05-29T03:07:35.843Z,81.10
2018-05-29T03:10:01.945Z,80.90
2018-05-29T03:12:28.050Z,80.80
2018-05-29T03:14:54.142Z,80.80
2018-05-29T03:17:20.237Z,80.70
2018-05-29T03:19:47.074Z,80.50
2018-05-29T03:22:13.918Z,80.50
2018-05-29T03:24:40.762Z,80.50
2018-05-29T03:27:07.610Z,80.40
2018-05-29T03:29:34.440Z,80.30
2018-05-29T03:32:01.280Z,80.60
2018-05-29T03:34:28.141Z,80.00
2018-05-29T03:36:54.994Z,79.90
2018-05-29T03:39:21.084Z,79.80
2018-05-29T03:41:47.173Z,79.80
2018-05-29T03:44:13.270Z,79.80
2018-05-29T03:46:39.361Z,79.80
2018-05-29T03:49:05.454Z,79.70
2018-05-29T03:51:31.537Z,79.70
2018-05-29T03:53:58.378Z,79.30
2018-05-29T03:56:25.210Z,79.10
2018-05-29T03:58:52.058Z,78.60
2018-05-29T04:01:19.686Z,78.00
2018-05-29T04:03:45.815Z,78.70
2018-05-29T04:06:11.906Z,77.50
2018-05-29T04:08:38.015Z,77.20
2018-05-29T04:11:04.103Z,76.90
2018-05-29T04:13:30.193Z,76.80
2018-05-29T04:15:56.278Z,76.90
2018-05-29T04:18:23.119Z,76.90
2018-05-29T04:20:49.958Z,76.80
2018-05-29T04:23:16.809Z,76.80
2018-05-29T04:25:44.290Z,76.70
2018-05-29T04:28:10.382Z,76.70
2018-05-29T04:30:37.209Z,76.30
2018-05-29T04:33:03.309Z,76.20
2018-05-29T04:35:29.393Z,76.10
2018-05-29T04:37:55.510Z,75.80
2018-05-29T04:40:22.342Z,75.10
2018-05-29T04:42:48.434Z,75.10
2018-05-29T04:45:14.539Z,74.50
2018-05-29T04:47:40.642Z,74.00
2018-05-29T04:50:06.746Z,70.40
2018-05-29T04:52:33.581Z,59.10
2018-05-29T04:54:59.686Z,59.10
2018-05-29T04:57:25.769Z,54.50
2018-05-29T04:59:51.894Z,52.40
2018-05-29T05:02:17.982Z,49.80
2018-05-29T05:04:44.091Z,48.30
2018-05-29T05:07:10.183Z,46.70
2018-05-29T05:09:36.281Z,44.10
2018-05-29T05:12:03.118Z,42.20
2018-05-29T05:14:29.961Z,41.10
2018-05-29T05:16:56.799Z,39.50
2018-05-29T05:19:23.637Z,39.80
2018-05-29T05:21:49.726Z,39.20
2018-05-29T05:24:15.832Z,37.90
2018-05-29T05:26:41.925Z,36.90
2018-05-29T05:29:08.038Z,36.30
2018-05-29T05:31:34.144Z,35.80
2018-05-29T05:34:00.250Z,35.10
2018-05-29T05:36:26.337Z,34.30
2018-05-29T05:38:53.178Z,32.70
2018-05-29T05:41:26.817Z,32.40
2018-05-29T05:43:52.910Z,32.40
2018-05-29T05:46:19.754Z,31.40
2018-05-29T05:48:45.838Z,32.00
2018-05-29T05:51:11.929Z,30.70
2018-05-29T05:53:38.005Z,30.20
2018-05-29T05:56:04.102Z,30.20
2018-05-29T05:58:30.226Z,29.70
2018-05-29T06:00:56.315Z,29.50
2018-05-29T06:03:22.406Z,29.20
2018-05-29T06:05:48.497Z,29.00
2018-05-29T06:08:14.577Z,28.90
2018-05-29T06:10:41.419Z,28.30
2018-05-29T06:13:08.251Z,28.10
2018-05-29T06:15:34.345Z,28.10
2018-05-29T06:18:00.440Z,28.20
2018-05-29T06:20:26.890Z,27.90
2018-05-29T06:22:52.973Z,27.90
2018-05-29T06:25:19.809Z,27.80
2018-05-29T06:27:45.898Z,27.80
2018-05-29T06:30:11.990Z,27.70
2018-05-29T06:32:38.086Z,27.80
2018-05-29T06:35:04.913Z,27.50
2018-05-29T06:37:31.002Z,27.50
2018-05-29T06:39:57.090Z,27.30
2018-05-29T06:42:23.926Z,27.70
2018-05-29T06:44:50.804Z,27.50
2018-05-29T06:47:17.610Z,27.40
2018-05-29T06:49:44.437Z,27.80
2018-05-29T06:52:10.531Z,27.70
2018-05-29T06:54:36.621Z,27.70
2018-05-29T06:57:03.450Z,27.60
2018-05-29T06:59:30.278Z,27.80
2018-05-29T07:01:56.382Z,27.80
2018-05-29T07:04:22.913Z,27.90
2018-05-29T07:06:49.110Z,27.70
2018-05-29T07:09:28.521Z,27.90
2018-05-29T07:11:55.341Z,27.80
2018-05-29T07:14:21.481Z,27.70
2018-05-29T07:16:47.537Z,28.00
2018-05-29T07:19:13.634Z,28.00
2018-05-29T07:21:40.466Z,28.40
2018-05-29T07:24:06.554Z,28.30
2018-05-29T07:26:32.651Z,28.50
2018-05-29T07:28:59.491Z,28.80
2018-05-29T07:31:25.590Z,28.80
2018-05-29T07:33:51.687Z,29.20
2018-05-29T07:36:17.782Z,29.20
2018-05-29T07:38:43.871Z,29.30
2018-05-29T07:41:09.979Z,29.30
2018-05-29T07:43:36.075Z,29.40
2018-05-29T07:46:02.170Z,29.90
2018-05-29T07:48:28.282Z,30.10
2018-05-29T07:50:55.127Z,30.60
2018-05-29T07:53:21.971Z,30.90
2018-05-29T07:55:48.799Z,31.00
2018-05-29T07:58:14.907Z,31.00
2018-05-29T08:00:41.013Z,31.10
2018-05-29T08:03:07.112Z,31.50
2018-05-29T08:05:33.203Z,31.70
2018-05-29T08:07:59.305Z,31.70
2018-05-29T08:10:25.404Z,31.70
2018-05-29T08:12:51.501Z,31.80
2018-05-29T08:15:18.335Z,31.70
2018-05-29T08:17:45.187Z,32.10
2018-05-29T08:20:12.014Z,32.40
2018-05-29T08:22:38.109Z,32.40
2018-05-29T08:25:04.197Z,32.60
2018-05-29T08:27:30.303Z,32.30
2018-05-29T08:29:57.134Z,32.20
2018-05-29T08:32:23.230Z,32.20
2018-05-29T08:34:49.326Z,31.90
2018-05-29T08:37:15.546Z,32.30
2018-05-29T08:39:41.670Z,32.60
2018-05-29T08:42:08.492Z,32.00
2018-05-29T08:44:34.581Z,32.00
2018-05-29T08:47:00.686Z,31.90
2018-05-29T08:49:26.787Z,31.20
2018-05-29T08:51:52.878Z,31.10
2018-05-29T08:54:18.975Z,31.20
2018-05-29T08:56:45.079Z,31.30
2018-05-29T08:59:11.181Z,31.00
2018-05-29T09:01:38.026Z,30.40
2018-05-29T09:04:04.939Z,30.40
2018-05-29T09:06:30.987Z,30.30
2018-05-29T09:08:57.093Z,30.60
2018-05-29T09:11:24.661Z,30.60
2018-05-29T09:13:50.763Z,30.60
2018-05-29T09:16:16.887Z,30.40
2018-05-29T09:18:42.999Z,30.10
2018-05-29T09:21:09.104Z,29.90
2018-05-29T09:23:35.206Z,29.80
2018-05-29T09:26:05.823Z,30.00
2018-05-29T09:28:31.898Z,30.00
2018-05-29T09:31:06.454Z,29.90
2018-05-29T09:33:32.550Z,29.80
2018-05-29T09:35:58.635Z,29.50
2018-05-29T09:38:24.737Z,29.50
2018-05-29T09:40:50.835Z,29.70
2018-05-29T09:43:16.956Z,29.30
2018-05-29T09:45:43.087Z,29.60
2018-05-29T09:48:09.157Z,29.30
2018-05-29T09:50:36.729Z,28.90
2018-05-29T09:53:03.561Z,28.80
2018-05-29T09:55:30.401Z,28.70
2018-05-29T09:57:56.485Z,28.70
2018-05-29T10:00:28.705Z,29.40
2018-05-29T10:02:55.553Z,28.80
2018-05-29T10:05:24.614Z,28.80
2018-05-29T10:07:50.710Z,28.80
2018-05-29T10:10:16.806Z,28.80
2018-05-29T10:12:43.638Z,28.50
2018-05-29T10:15:10.474Z,28.30
2018-05-29T10:17:36.567Z,28.30
2018-05-29T10:20:02.682Z,28.50
2018-05-29T10:22:28.771Z,28.40
2018-05-29T10:24:55.605Z,28.50
2018-05-29T10:27:22.434Z,28.40
2018-05-29T10:29:48.517Z,28.40
2018-05-29T10:32:14.593Z,28.00
2018-05-29T10:34:41.430Z,28.10
2018-05-29T10:37:07.522Z,28.10
2018-05-29T10:39:33.635Z,28.30
2018-05-29T10:41:59.730Z,27.70
2018-05-29T10:44:25.835Z,27.50
2018-05-29T10:46:52.674Z,27.70
2018-05-29T10:49:18.762Z,27.70
2018-05-29T10:51:44.860Z,26.90
2018-05-29T10:54:10.954Z,26.70
2018-05-29T10:56:37.790Z,26.10
2018-05-29T10:59:03.882Z,26.10
2018-05-29T11:01:29.969Z,26.30
2018-05-29T11:03:56.062Z,26.90
2018-05-29T11:06:22.146Z,27.00
2018-05-29T11:08:48.238Z,27.00
2018-05-29T11:11:15.530Z,27.20
2018-05-29T11:13:41.621Z,27.10
2018-05-29T11:16:08.463Z,27.20
2018-05-29T11:18:35.300Z,26.90
2018-05-29T11:21:02.141Z,26.80
2018-05-29T11:23:28.989Z,26.50
2018-05-29T11:25:55.839Z,26.60
2018-05-29T11:28:22.666Z,26.70
2018-05-29T11:30:49.510Z,26.80
2018-05-29T11:33:16.346Z,26.70
2018-05-29T11:35:42.446Z,26.70
2018-05-29T11:38:08.542Z,26.60
2018-05-29T11:40:34.638Z,26.50
2018-05-29T11:43:01.474Z,26.60
2018-05-29T11:45:28.326Z,26.80
2018-05-29T11:47:55.166Z,27.00
2018-05-29T11:50:21.994Z,26.80
2018-05-29T11:52:48.085Z,26.80
2018-05-29T11:55:14.183Z,26.60
2018-05-29T11:57:40.306Z,26.40
2018-05-29T12:00:06.409Z,26.10
2018-05-29T12:02:33.250Z,26.30
2018-05-29T12:05:00.106Z,26.20
2018-05-29T12:07:26.955Z,26.10
2018-05-29T12:09:53.042Z,26.10
2018-05-29T12:12:26.089Z,25.90
2018-05-29T12:14:52.186Z,25.60
2018-05-29T12:17:19.026Z,26.60
2018-05-29T12:19:45.862Z,27.00
2018-05-29T12:22:12.699Z,27.00
2018-05-29T12:24:38.807Z,26.80
2018-05-29T12:27:04.897Z,26.80
2018-05-29T12:29:30.975Z,26.60
2018-05-29T12:31:57.069Z,27.20
2018-05-29T12:34:23.186Z,27.90
2018-05-29T12:36:49.265Z,27.70
2018-05-29T12:39:16.090Z,27.50
2018-05-29T12:41:42.194Z,27.50
2018-05-29T12:44:08.297Z,27.60
2018-05-29T12:46:34.389Z,28.10
2018-05-29T12:49:01.226Z,28.00
2018-05-29T12:51:28.071Z,27.80
2018-05-29T12:53:54.902Z,27.80
2018-05-29T12:56:20.982Z,27.80
2018-05-29T12:58:47.082Z,28.00
2018-05-29T13:01:13.183Z,27.40
2018-05-29T13:03:39.287Z,27.20
2018-05-29T13:06:05.378Z,27.00
2018-05-29T13:08:31.481Z,26.50
2018-05-29T13:10:57.575Z,27.20
2018-05-29T13:13:23.671Z,27.60
2018-05-29T13:15:49.763Z,27.70
2018-05-29T13:18:15.857Z,27.30
2018-05-29T13:20:41.938Z,26.80
2018-05-29T13:23:08.037Z,26.70
2018-05-29T13:25:34.125Z,27.00
2018-05-29T13:28:00.241Z,27.30
2018-05-29T13:30:26.894Z,26.90
2018-05-29T13:32:52.998Z,26.90
2018-05-29T13:35:19.090Z,26.70
2018-05-29T13:37:45.202Z,26.90
2018-05-29T13:40:12.029Z,27.20
2018-05-29T13:42:38.889Z,27.10
2018-05-29T13:45:05.726Z,26.70
2018-05-29T13:47:32.562Z,26.50
2018-05-29T13:49:59.413Z,27.00
2018-05-29T13:52:26.246Z,27.20
2018-05-29T13:54:53.089Z,27.00
2018-05-29T13:57:19.922Z,26.70
2018-05-29T13:59:46.018Z,26.60
2018-05-29T14:02:12.102Z,26.50
2018-05-29T14:04:38.202Z,26.10
2018-05-29T14:07:04.277Z,26.50
2018-05-29T14:09:30.374Z,27.10
2018-05-29T14:11:57.193Z,27.40
2018-05-29T14:14:23.289Z,27.40
2018-05-29T14:16:49.378Z,27.30
2018-05-29T14:19:15.485Z,27.20
2018-05-29T14:21:42.331Z,26.70
2018-05-29T14:24:09.197Z,26.60
2018-05-29T14:26:35.281Z,26.60
2018-05-29T14:29:01.395Z,26.70
2018-05-29T14:31:27.485Z,27.20
2018-05-29T14:33:53.680Z,27.80
2018-05-29T14:36:19.734Z,28.40
2018-05-29T14:38:45.856Z,28.80
2018-05-29T14:41:11.966Z,28.80
2018-05-29T14:43:38.052Z,28.30
2018-05-29T14:46:04.142Z,27.90
2018-05-29T14:48:30.234Z,27.70
2018-05-29T14:50:57.073Z,27.40
2018-05-29T14:53:23.902Z,27.20
2018-05-29T14:55:50.758Z,27.40
2018-05-29T14:58:17.594Z,27.80
2018-05-29T15:00:44.435Z,28.50
2018-05-29T15:03:10.543Z,28.30
2018-05-29T15:05:38.117Z,28.90
2018-05-29T15:08:04.199Z,28.80
2018-05-29T15:10:30.350Z,29.10
2018-05-29T15:12:56.445Z,29.40
2018-05-29T15:15:22.551Z,29.50
2018-05-29T15:17:48.642Z,29.40
2018-05-29T15:20:15.439Z,29.20
2018-05-29T15:22:42.227Z,29.20
2018-05-29T15:25:08.332Z,28.70
2018-05-29T15:27:34.417Z,28.20
2018-05-29T15:30:00.516Z,27.90
2018-05-29T15:32:27.347Z,28.20
2018-05-29T15:34:53.446Z,27.80
2018-05-29T15:37:19.538Z,27.60
2018-05-29T15:39:45.637Z,27.90
2018-05-29T15:42:12.478Z,28.50
2018-05-29T15:44:39.322Z,28.50
2018-05-29T15:47:06.153Z,28.40
2018-05-29T15:49:32.237Z,28.30
2018-05-29T15:51:58.343Z,28.20
2018-05-29T15:54:24.443Z,28.10
2018-05-29T15:56:51.286Z,28.20
2018-05-29T15:59:18.128Z,28.70
2018-05-29T16:01:44.963Z,27.80
2018-05-29T16:04:11.062Z,27.80
2018-05-29T16:06:37.162Z,28.00
2018-05-29T16:09:03.254Z,28.10
2018-05-29T16:11:30.124Z,28.40
2018-05-29T16:13:56.229Z,28.30
2018-05-29T16:16:23.057Z,28.60
2018-05-29T16:18:49.150Z,28.60
2018-05-29T16:21:15.246Z,28.70
2018-05-29T16:23:41.351Z,28.80
2018-05-29T16:26:08.185Z,29.20
2018-05-29T16:28:35.022Z,29.30
2018-05-29T16:31:01.145Z,29.30
2018-05-29T16:33:27.250Z,29.70
2018-05-29T16:35:53.397Z,30.50
2018-05-29T16:38:19.494Z,30.20
2018-05-29T16:40:45.626Z,30.40
2018-05-29T16:43:11.693Z,30.80
2018-05-29T16:45:38.534Z,32.10
2018-05-29T16:48:08.666Z,32.70
2018-05-29T16:50:34.756Z,32.70
2018-05-29T16:53:00.853Z,33.80
2018-05-29T16:55:26.954Z,34.60
2018-05-29T16:57:53.058Z,35.70
2018-05-29T17:00:19.895Z,37.60
2018-05-29T17:02:46.738Z,38.00
2018-05-29T17:05:13.582Z,38.60
2018-05-29T17:07:40.436Z,39.00
2018-05-29T17:10:07.266Z,40.10
2018-05-29T17:12:34.115Z,40.50
2018-05-29T17:15:00.216Z,40.40
2018-05-29T17:17:26.321Z,42.20
2018-05-29T17:19:52.423Z,43.30
2018-05-29T17:22:18.533Z,43.80
2018-05-29T17:24:44.629Z,43.90
2018-05-29T17:27:11.470Z,44.10
2018-05-29T17:29:37.583Z,44.10
2018-05-29T17:32:03.693Z,44.20
2018-05-29T17:34:29.764Z,44.20
2018-05-29T17:36:55.848Z,44.40
2018-05-29T17:39:21.941Z,44.80
2018-05-29T17:41:48.021Z,44.80
2018-05-29T17:44:14.126Z,45.20
2018-05-29T17:46:40.218Z,45.70
2018-05-29T17:49:06.317Z,46.00
2018-05-29T17:51:33.150Z,46.30
2018-05-29T17:53:59.242Z,46.30
2018-05-29T17:56:25.372Z,46.60
2018-05-29T17:58:51.437Z,46.70
2018-05-29T18:01:33.006Z,47.10
2018-05-29T18:04:02.651Z,47.50
2018-05-29T18:06:28.751Z,47.40
2018-05-29T18:08:54.850Z,47.60
2018-05-29T18:11:20.942Z,47.60
2018-05-29T18:13:47.038Z,48.20
2018-05-29T18:16:13.877Z,47.90
2018-05-29T18:18:40.719Z,48.00
2018-05-29T18:21:06.818Z,48.00
2018-05-29T18:23:46.189Z,48.30
2018-05-29T18:26:13.018Z,48.90
2018-05-29T18:28:39.119Z,48.80
2018-05-29T18:31:05.253Z,49.10
2018-05-29T18:34:00.051Z,49.30
2018-05-29T18:36:26.159Z,49.40
2018-05-29T18:38:52.273Z,49.60
2018-05-29T18:41:18.371Z,49.60
2018-05-29T18:43:45.212Z,50.00
2018-05-29T18:46:12.077Z,50.20
2018-05-29T18:48:38.887Z,50.90
2018-05-29T18:51:05.717Z,51.10
2018-05-29T18:53:31.817Z,51.10
2018-05-29T18:55:57.897Z,51.10
2018-05-29T18:58:24.727Z,51.60
2018-05-29T19:00:51.562Z,51.80
2018-05-29T19:03:17.676Z,51.70
2018-05-29T19:05:43.784Z,52.00
2018-05-29T19:08:09.869Z,52.50
2018-05-29T19:10:35.974Z,52.70
2018-05-29T19:13:02.799Z,53.30
2018-05-29T19:15:28.910Z,53.30
2018-05-29T19:17:55.741Z,53.90
2018-05-29T19:20:21.842Z,53.90
2018-05-29T19:22:47.952Z,54.10
2018-05-29T19:25:14.046Z,54.20
2018-05-29T19:27:40.133Z,54.50
2018-05-29T19:30:06.222Z,54.70
2018-05-29T19:32:33.078Z,55.00
2018-05-29T19:34:59.186Z,55.00
2018-05-29T19:37:26.038Z,55.20
2018-05-29T19:39:52.922Z,55.50
2018-05-29T19:42:19.005Z,55.50
2018-05-29T19:44:45.894Z,55.90
2018-05-29T19:47:11.945Z,55.90
2018-05-29T19:49:38.038Z,56.20
2018-05-29T19:52:04.129Z,56.40
2018-05-29T19:54:30.245Z,57.40
2018-05-29T19:56:57.083Z,57.70
2018-05-29T19:59:23.961Z,58.20
2018-05-29T20:01:50.042Z,58.20
2018-05-29T20:04:16.143Z,58.30
2018-05-29T20:06:42.246Z,58.50
2018-05-29T20:09:08.338Z,58.60
2018-05-29T20:11:35.185Z,59.10
2018-05-29T20:14:01.282Z,59.00
2018-05-29T20:16:27.380Z,59.20
2018-05-29T20:18:53.475Z,59.20
2018-05-29T20:21:19.574Z,58.90
2018-05-29T20:23:46.416Z,58.50
2018-05-29T20:26:13.259Z,58.10
2018-05-29T20:28:40.086Z,58.10
2018-05-29T20:31:06.178Z,58.00
2018-05-29T20:33:32.259Z,58.20
2018-05-29T20:35:59.097Z,58.30
2018-05-29T20:38:25.925Z,58.40
2018-05-29T20:40:52.029Z,58.20
2018-05-29T20:43:18.127Z,58.20
2018-05-29T20:45:44.229Z,58.00
2018-05-29T20:48:11.053Z,58.20
2018-05-29T20:50:37.902Z,58.40
2018-05-29T20:53:04.739Z,58.70
2018-05-29T20:55:30.822Z,58.70
2018-05-29T20:57:56.919Z,58.60
2018-05-29T21:00:23.006Z,58.70
2018-05-29T21:02:49.096Z,58.80
2018-05-29T21:05:15.185Z,58.90
2018-05-29T21:07:42.030Z,59.40
2018-05-29T21:10:08.881Z,59.60
2018-05-29T21:12:34.978Z,59.60
2018-05-29T21:15:01.070Z,59.60
2018-05-29T21:17:27.157Z,59.50
2018-05-29T21:19:53.254Z,59.50
2018-05-29T21:22:19.403Z,59.60
2018-05-29T21:24:45.470Z,59.80
2018-05-29T21:27:11.566Z,60.00
2018-05-29T21:29:37.653Z,60.30
2018-05-29T21:32:03.747Z,60.60
2018-05-29T21:34:29.837Z,60.70
2018-05-29T21:36:55.945Z,61.10
2018-05-29T21:39:39.473Z,61.40
2018-05-29T21:42:05.563Z,61.30
2018-05-29T21:44:31.667Z,61.10
2018-05-29T21:46:57.770Z,60.80
2018-05-29T21:49:24.602Z,60.60
2018-05-29T21:51:51.441Z,60.60
2018-05-29T21:54:17.530Z,60.60
2018-05-29T21:56:43.622Z,60.50
2018-05-29T21:59:09.709Z,60.70
2018-05-29T22:01:35.799Z,61.00
2018-05-29T22:04:05.178Z,61.40
2018-05-29T22:06:31.296Z,61.70
2018-05-29T22:15:03.105Z,61.70
2018-05-29T22:17:29.211Z,61.70
2018-05-29T22:19:56.050Z,61.10
2018-05-29T22:22:50.314Z,60.80
2018-05-29T22:25:16.402Z,60.80
2018-05-29T22:27:42.514Z,60.60
2018-05-29T22:30:08.620Z,60.70
2018-05-29T22:32:35.477Z,60.50
2018-05-29T22:35:01.570Z,60.40
2018-05-29T22:37:27.682Z,60.50
2018-05-29T22:39:53.776Z,61.10
2018-05-29T22:42:19.870Z,60.90
2018-05-29T22:44:46.706Z,60.90
2018-05-29T22:47:13.553Z,60.80
2018-05-29T22:49:40.434Z,60.70
2018-05-29T22:52:06.521Z,60.70
2018-05-29T22:54:33.372Z,60.80
2018-05-29T22:57:00.205Z,60.80
2018-05-29T22:59:27.045Z,60.90
2018-05-29T23:01:54.519Z,60.90
2018-05-29T23:04:20.623Z,60.90
2018-05-29T23:06:46.711Z,61.10
2018-05-29T23:09:12.810Z,61.80
2018-05-29T23:11:38.901Z,62.20
2018-05-29T23:14:04.989Z,62.50
2018-05-29T23:16:31.091Z,63.10
2018-05-29T23:18:57.190Z,63.70
2018-05-29T23:21:24.018Z,64.20
2018-05-29T23:23:50.129Z,64.10
2018-05-29T23:26:16.233Z,64.60
2018-05-29T23:28:42.335Z,64.70
2018-05-29T23:31:08.434Z,64.70
2018-05-29T23:33:35.275Z,65.00
2018-05-29T23:36:04.138Z,65.20
2018-05-29T23:38:30.252Z,65.10
2018-05-29T23:40:56.351Z,65.60
2018-05-29T23:43:22.446Z,66.00
2018-05-29T23:45:49.303Z,66.10
2018-05-29T23:48:15.416Z,66.10
2018-05-29T23:50:42.261Z,66.80
2018-05-29T23:53:09.086Z,67.20
2018-05-29T23:55:35.186Z,67.10
2018-05-29T23:58:01.284Z,67.30
